sensor_id;sensor_type;location;lat;lon;timestamp;P1;durP1;ratioP1;P2;durP2;ratioP2
77298;SDS011;66361;52.034;20.656;2023-06-10T00:01:25;13.88;;;11.23;;
77298;SDS011;66361;52.034;20.656;2023-06-10T00:05:29;12.70;;;11.40;;
77298;SDS011;66361;52.034;20.656;2023-06-10T00:09:35;12.93;;;11.45;;
77298;SDS011;66361;52.034;20.656;2023-06-10T00:13:38;13.20;;;11.93;;
77298;SDS011;66361;52.034;20.656;2023-06-10T00:17:44;14.00;;;11.10;;
77298;SDS011;66361;52.034;20.656;2023-06-10T00:21:47;13.82;;;10.93;;
77298;SDS011;66361;52.034;20.656;2023-06-10T00:25:52;13.60;;;12.23;;
77298;SDS011;66361;52.034;20.656;2023-06-10T00:29:56;14.73;;;12.63;;
77298;SDS011;66361;52.034;20.656;2023-06-10T00:34:01;14.52;;;13.13;;
77298;SDS011;66361;52.034;20.656;2023-06-10T00:38:04;14.35;;;12.65;;
77298;SDS011;66361;52.034;20.656;2023-06-10T00:42:08;14.18;;;12.68;;
77298;SDS011;66361;52.034;20.656;2023-06-10T00:46:12;12.68;;;11.45;;
77298;SDS011;66361;52.034;20.656;2023-06-10T00:50:18;13.18;;;11.05;;
77298;SDS011;66361;52.034;20.656;2023-06-10T00:54:21;14.80;;;11.27;;
77298;SDS011;66361;52.034;20.656;2023-06-10T00:58:25;13.60;;;12.30;;
77298;SDS011;66361;52.034;20.656;2023-06-10T01:02:29;12.85;;;11.45;;
77298;SDS011;66361;52.034;20.656;2023-06-10T01:06:35;13.60;;;12.27;;
77298;SDS011;66361;52.034;20.656;2023-06-10T01:10:49;13.30;;;11.93;;
77298;SDS011;66361;52.034;20.656;2023-06-10T01:14:56;11.35;;;10.15;;
77298;SDS011;66361;52.034;20.656;2023-06-10T01:19:01;12.82;;;11.50;;
77298;SDS011;66361;52.034;20.656;2023-06-10T01:23:05;15.95;;;12.32;;
77298;SDS011;66361;52.034;20.656;2023-06-10T01:27:12;14.30;;;11.40;;
77298;SDS011;66361;52.034;20.656;2023-06-10T01:31:20;12.88;;;11.68;;
77298;SDS011;66361;52.034;20.656;2023-06-10T01:35:34;16.33;;;12.82;;
77298;SDS011;66361;52.034;20.656;2023-06-10T01:39:42;13.05;;;11.40;;
77298;SDS011;66361;52.034;20.656;2023-06-10T01:43:45;12.85;;;10.07;;
77298;SDS011;66361;52.034;20.656;2023-06-10T01:47:49;13.95;;;10.98;;
77298;SDS011;66361;52.034;20.656;2023-06-10T01:51:52;12.30;;;11.05;;
77298;SDS011;66361;52.034;20.656;2023-06-10T01:55:57;12.18;;;10.63;;
77298;SDS011;66361;52.034;20.656;2023-06-10T01:59:59;10.90;;;9.63;;
77298;SDS011;66361;52.034;20.656;2023-06-10T02:08:05;10.90;;;9.80;;
77298;SDS011;66361;52.034;20.656;2023-06-10T02:12:10;11.88;;;10.68;;
77298;SDS011;66361;52.034;20.656;2023-06-10T02:16:17;12.52;;;9.90;;
77298;SDS011;66361;52.034;20.656;2023-06-10T02:20:22;10.73;;;8.88;;
77298;SDS011;66361;52.034;20.656;2023-06-10T02:24:26;12.77;;;10.38;;
77298;SDS011;66361;52.034;20.656;2023-06-10T02:28:30;10.32;;;9.23;;
77298;SDS011;66361;52.034;20.656;2023-06-10T02:32:33;9.20;;;8.30;;
77298;SDS011;66361;52.034;20.656;2023-06-10T02:36:36;10.07;;;8.82;;
77298;SDS011;66361;52.034;20.656;2023-06-10T02:40:39;9.60;;;8.68;;
77298;SDS011;66361;52.034;20.656;2023-06-10T02:44:44;9.68;;;7.95;;
77298;SDS011;66361;52.034;20.656;2023-06-10T02:48:47;9.27;;;7.50;;
77298;SDS011;66361;52.034;20.656;2023-06-10T02:52:53;11.77;;;6.97;;
77298;SDS011;66361;52.034;20.656;2023-06-10T02:56:56;9.07;;;7.43;;
77298;SDS011;66361;52.034;20.656;2023-06-10T03:01:00;10.55;;;6.80;;
77298;SDS011;66361;52.034;20.656;2023-06-10T03:05:04;10.02;;;6.75;;
77298;SDS011;66361;52.034;20.656;2023-06-10T03:09:11;7.63;;;6.25;;
77298;SDS011;66361;52.034;20.656;2023-06-10T03:13:14;7.80;;;5.53;;
77298;SDS011;66361;52.034;20.656;2023-06-10T03:17:19;7.85;;;5.65;;
77298;SDS011;66361;52.034;20.656;2023-06-10T03:21:22;6.93;;;5.57;;
77298;SDS011;66361;52.034;20.656;2023-06-10T03:25:25;8.73;;;5.22;;
77298;SDS011;66361;52.034;20.656;2023-06-10T03:29:29;9.93;;;5.68;;
77298;SDS011;66361;52.034;20.656;2023-06-10T03:33:34;7.47;;;5.15;;
77298;SDS011;66361;52.034;20.656;2023-06-10T03:37:37;6.82;;;4.80;;
77298;SDS011;66361;52.034;20.656;2023-06-10T03:41:40;6.93;;;5.70;;
77298;SDS011;66361;52.034;20.656;2023-06-10T03:45:43;6.45;;;4.60;;
77298;SDS011;66361;52.034;20.656;2023-06-10T03:49:49;7.22;;;4.90;;
77298;SDS011;66361;52.034;20.656;2023-06-10T03:53:52;6.68;;;4.68;;
77298;SDS011;66361;52.034;20.656;2023-06-10T03:57:55;6.00;;;5.40;;
77298;SDS011;66361;52.034;20.656;2023-06-10T04:01:58;8.55;;;4.75;;
77298;SDS011;66361;52.034;20.656;2023-06-10T04:06:03;9.20;;;4.60;;
77298;SDS011;66361;52.034;20.656;2023-06-10T04:10:07;6.32;;;4.93;;
77298;SDS011;66361;52.034;20.656;2023-06-10T04:14:12;7.18;;;4.93;;
77298;SDS011;66361;52.034;20.656;2023-06-10T04:18:15;10.98;;;4.88;;
77298;SDS011;66361;52.034;20.656;2023-06-10T04:22:19;6.47;;;4.85;;
77298;SDS011;66361;52.034;20.656;2023-06-10T04:26:22;7.72;;;5.57;;
77298;SDS011;66361;52.034;20.656;2023-06-10T04:30:27;7.00;;;4.78;;
77298;SDS011;66361;52.034;20.656;2023-06-10T04:34:30;7.80;;;5.05;;
77298;SDS011;66361;52.034;20.656;2023-06-10T04:38:34;7.05;;;4.63;;
77298;SDS011;66361;52.034;20.656;2023-06-10T04:42:37;7.20;;;4.63;;
77298;SDS011;66361;52.034;20.656;2023-06-10T04:46:40;7.03;;;4.93;;
77298;SDS011;66361;52.034;20.656;2023-06-10T04:50:44;7.55;;;5.07;;
77298;SDS011;66361;52.034;20.656;2023-06-10T04:54:48;9.02;;;5.18;;
77298;SDS011;66361;52.034;20.656;2023-06-10T04:58:51;6.97;;;4.70;;
77298;SDS011;66361;52.034;20.656;2023-06-10T05:02:54;5.55;;;4.68;;
77298;SDS011;66361;52.034;20.656;2023-06-10T05:06:57;7.90;;;5.50;;
77298;SDS011;66361;52.034;20.656;2023-06-10T05:11:02;6.78;;;4.53;;
77298;SDS011;66361;52.034;20.656;2023-06-10T05:15:05;6.43;;;4.50;;
77298;SDS011;66361;52.034;20.656;2023-06-10T05:19:09;5.60;;;5.05;;
77298;SDS011;66361;52.034;20.656;2023-06-10T05:23:12;8.93;;;5.05;;
77298;SDS011;66361;52.034;20.656;2023-06-10T05:27:16;8.50;;;5.00;;
77298;SDS011;66361;52.034;20.656;2023-06-10T05:31:20;8.07;;;5.13;;
77298;SDS011;66361;52.034;20.656;2023-06-10T05:35:23;7.25;;;5.38;;
77298;SDS011;66361;52.034;20.656;2023-06-10T05:39:26;6.32;;;4.80;;
77298;SDS011;66361;52.034;20.656;2023-06-10T05:43:32;6.25;;;4.55;;
77298;SDS011;66361;52.034;20.656;2023-06-10T05:47:36;9.68;;;5.30;;
77298;SDS011;66361;52.034;20.656;2023-06-10T05:51:39;9.32;;;5.57;;
77298;SDS011;66361;52.034;20.656;2023-06-10T05:55:42;9.95;;;6.15;;
77298;SDS011;66361;52.034;20.656;2023-06-10T05:59:47;8.60;;;5.10;;
77298;SDS011;66361;52.034;20.656;2023-06-10T06:03:50;8.38;;;5.78;;
77298;SDS011;66361;52.034;20.656;2023-06-10T06:07:53;7.32;;;5.30;;
77298;SDS011;66361;52.034;20.656;2023-06-10T06:11:56;7.13;;;5.18;;
77298;SDS011;66361;52.034;20.656;2023-06-10T06:16:00;5.65;;;4.88;;
77298;SDS011;66361;52.034;20.656;2023-06-10T06:20:03;7.65;;;5.38;;
77298;SDS011;66361;52.034;20.656;2023-06-10T06:24:08;6.45;;;5.10;;
77298;SDS011;66361;52.034;20.656;2023-06-10T06:28:11;5.22;;;4.60;;
77298;SDS011;66361;52.034;20.656;2023-06-10T06:32:18;5.85;;;5.00;;
77298;SDS011;66361;52.034;20.656;2023-06-10T06:36:23;9.82;;;5.15;;
77298;SDS011;66361;52.034;20.656;2023-06-10T06:40:28;6.25;;;5.43;;
77298;SDS011;66361;52.034;20.656;2023-06-10T06:44:32;7.72;;;5.38;;
77298;SDS011;66361;52.034;20.656;2023-06-10T06:48:36;5.85;;;5.25;;
77298;SDS011;66361;52.034;20.656;2023-06-10T06:52:39;6.07;;;4.47;;
77298;SDS011;66361;52.034;20.656;2023-06-10T06:56:42;7.03;;;5.13;;
77298;SDS011;66361;52.034;20.656;2023-06-10T07:00:45;7.45;;;5.28;;
77298;SDS011;66361;52.034;20.656;2023-06-10T07:04:49;6.35;;;4.80;;
77298;SDS011;66361;52.034;20.656;2023-06-10T07:08:52;5.88;;;5.38;;
77298;SDS011;66361;52.034;20.656;2023-06-10T07:12:56;8.15;;;5.40;;
77298;SDS011;66361;52.034;20.656;2023-06-10T07:16:59;5.90;;;5.30;;
77298;SDS011;66361;52.034;20.656;2023-06-10T07:21:03;5.70;;;5.10;;
77298;SDS011;66361;52.034;20.656;2023-06-10T07:25:06;6.72;;;5.20;;
77298;SDS011;66361;52.034;20.656;2023-06-10T07:29:10;6.97;;;4.97;;
77298;SDS011;66361;52.034;20.656;2023-06-10T07:33:14;7.25;;;4.80;;
77298;SDS011;66361;52.034;20.656;2023-06-10T07:37:18;5.60;;;4.57;;
77298;SDS011;66361;52.034;20.656;2023-06-10T07:41:22;6.88;;;4.85;;
77298;SDS011;66361;52.034;20.656;2023-06-10T07:45:27;5.20;;;4.53;;
77298;SDS011;66361;52.034;20.656;2023-06-10T07:49:30;6.07;;;4.13;;
77298;SDS011;66361;52.034;20.656;2023-06-10T07:53:37;6.40;;;5.22;;
77298;SDS011;66361;52.034;20.656;2023-06-10T07:57:40;5.80;;;4.30;;
77298;SDS011;66361;52.034;20.656;2023-06-10T08:01:43;5.97;;;4.57;;
77298;SDS011;66361;52.034;20.656;2023-06-10T08:05:46;7.85;;;4.63;;
77298;SDS011;66361;52.034;20.656;2023-06-10T08:09:51;7.82;;;4.82;;
77298;SDS011;66361;52.034;20.656;2023-06-10T08:13:54;7.82;;;4.88;;
77298;SDS011;66361;52.034;20.656;2023-06-10T08:17:58;6.28;;;4.65;;
77298;SDS011;66361;52.034;20.656;2023-06-10T08:22:02;5.63;;;4.32;;
77298;SDS011;66361;52.034;20.656;2023-06-10T08:26:07;5.80;;;4.07;;
77298;SDS011;66361;52.034;20.656;2023-06-10T08:30:11;6.57;;;4.82;;
77298;SDS011;66361;52.034;20.656;2023-06-10T08:34:14;6.57;;;4.72;;
77298;SDS011;66361;52.034;20.656;2023-06-10T08:38:17;9.52;;;4.80;;
77298;SDS011;66361;52.034;20.656;2023-06-10T08:42:23;7.93;;;4.80;;
77298;SDS011;66361;52.034;20.656;2023-06-10T08:46:30;4.57;;;4.15;;
77298;SDS011;66361;52.034;20.656;2023-06-10T08:50:34;6.28;;;4.78;;
77298;SDS011;66361;52.034;20.656;2023-06-10T08:54:38;7.88;;;4.82;;
77298;SDS011;66361;52.034;20.656;2023-06-10T08:58:46;6.18;;;4.47;;
77298;SDS011;66361;52.034;20.656;2023-06-10T09:02:50;6.45;;;4.88;;
77298;SDS011;66361;52.034;20.656;2023-06-10T09:06:54;6.75;;;4.50;;
77298;SDS011;66361;52.034;20.656;2023-06-10T09:10:59;7.85;;;4.90;;
77298;SDS011;66361;52.034;20.656;2023-06-10T09:15:05;8.93;;;4.80;;
77298;SDS011;66361;52.034;20.656;2023-06-10T09:19:09;10.23;;;5.32;;
77298;SDS011;66361;52.034;20.656;2023-06-10T09:23:13;12.13;;;4.97;;
77298;SDS011;66361;52.034;20.656;2023-06-10T09:27:18;7.50;;;4.50;;
77298;SDS011;66361;52.034;20.656;2023-06-10T09:31:23;9.10;;;4.88;;
77298;SDS011;66361;52.034;20.656;2023-06-10T09:35:28;7.88;;;4.55;;
77298;SDS011;66361;52.034;20.656;2023-06-10T09:39:33;9.10;;;4.88;;
77298;SDS011;66361;52.034;20.656;2023-06-10T09:43:40;6.82;;;3.95;;
77298;SDS011;66361;52.034;20.656;2023-06-10T09:47:47;7.63;;;4.97;;
77298;SDS011;66361;52.034;20.656;2023-06-10T09:51:50;7.55;;;4.63;;
77298;SDS011;66361;52.034;20.656;2023-06-10T09:55:54;6.70;;;4.82;;
77298;SDS011;66361;52.034;20.656;2023-06-10T09:59:57;13.52;;;5.35;;
77298;SDS011;66361;52.034;20.656;2023-06-10T10:04:03;9.15;;;5.18;;
77298;SDS011;66361;52.034;20.656;2023-06-10T10:08:06;10.68;;;5.28;;
77298;SDS011;66361;52.034;20.656;2023-06-10T10:12:10;9.00;;;6.03;;
77298;SDS011;66361;52.034;20.656;2023-06-10T10:16:17;9.95;;;5.85;;
77298;SDS011;66361;52.034;20.656;2023-06-10T10:20:24;7.82;;;5.05;;
77298;SDS011;66361;52.034;20.656;2023-06-10T10:24:33;7.25;;;5.13;;
77298;SDS011;66361;52.034;20.656;2023-06-10T10:28:41;9.02;;;5.57;;
77298;SDS011;66361;52.034;20.656;2023-06-10T10:32:51;7.57;;;5.90;;
77298;SDS011;66361;52.034;20.656;2023-06-10T10:37:01;7.00;;;5.20;;
77298;SDS011;66361;52.034;20.656;2023-06-10T10:41:05;7.57;;;5.40;;
77298;SDS011;66361;52.034;20.656;2023-06-10T10:45:09;9.13;;;5.40;;
77298;SDS011;66361;52.034;20.656;2023-06-10T10:49:14;22.50;;;6.07;;
77298;SDS011;66361;52.034;20.656;2023-06-10T10:53:20;15.93;;;5.13;;
77298;SDS011;66361;52.034;20.656;2023-06-10T10:57:24;9.35;;;5.38;;
77298;SDS011;66361;52.034;20.656;2023-06-10T11:01:39;6.90;;;4.03;;
77298;SDS011;66361;52.034;20.656;2023-06-10T11:05:44;5.35;;;4.38;;
77298;SDS011;66361;52.034;20.656;2023-06-10T11:09:59;5.13;;;4.00;;
77298;SDS011;66361;52.034;20.656;2023-06-10T11:14:07;15.13;;;4.30;;
77298;SDS011;66361;52.034;20.656;2023-06-10T11:18:13;6.90;;;3.90;;
77298;SDS011;66361;52.034;20.656;2023-06-10T11:22:24;4.60;;;3.63;;
77298;SDS011;66361;52.034;20.656;2023-06-10T11:26:32;4.35;;;3.53;;
77298;SDS011;66361;52.034;20.656;2023-06-10T11:30:36;7.15;;;3.70;;
77298;SDS011;66361;52.034;20.656;2023-06-10T11:34:40;7.55;;;4.05;;
77298;SDS011;66361;52.034;20.656;2023-06-10T11:38:43;11.70;;;4.35;;
77298;SDS011;66361;52.034;20.656;2023-06-10T11:42:48;9.10;;;4.22;;
77298;SDS011;66361;52.034;20.656;2023-06-10T11:46:51;9.32;;;4.15;;
77298;SDS011;66361;52.034;20.656;2023-06-10T11:50:54;6.40;;;4.00;;
77298;SDS011;66361;52.034;20.656;2023-06-10T11:54:57;19.80;;;4.40;;
77298;SDS011;66361;52.034;20.656;2023-06-10T11:59:02;6.57;;;3.92;;
77298;SDS011;66361;52.034;20.656;2023-06-10T12:03:07;5.47;;;4.30;;
77298;SDS011;66361;52.034;20.656;2023-06-10T12:07:16;6.55;;;3.92;;
77298;SDS011;66361;52.034;20.656;2023-06-10T12:11:20;5.60;;;4.30;;
77298;SDS011;66361;52.034;20.656;2023-06-10T12:15:25;7.53;;;4.20;;
77298;SDS011;66361;52.034;20.656;2023-06-10T12:19:30;7.80;;;4.32;;
77298;SDS011;66361;52.034;20.656;2023-06-10T12:23:34;13.85;;;4.25;;
77298;SDS011;66361;52.034;20.656;2023-06-10T12:27:38;9.48;;;3.90;;
77298;SDS011;66361;52.034;20.656;2023-06-10T12:31:58;16.15;;;4.75;;
77298;SDS011;66361;52.034;20.656;2023-06-10T12:36:04;6.30;;;4.20;;
77298;SDS011;66361;52.034;20.656;2023-06-10T12:40:18;7.82;;;4.50;;
77298;SDS011;66361;52.034;20.656;2023-06-10T12:44:31;6.00;;;4.28;;
77298;SDS011;66361;52.034;20.656;2023-06-10T12:48:43;6.68;;;4.03;;
77298;SDS011;66361;52.034;20.656;2023-06-10T12:52:53;4.90;;;3.65;;
77298;SDS011;66361;52.034;20.656;2023-06-10T12:56:56;10.05;;;4.40;;
77298;SDS011;66361;52.034;20.656;2023-06-10T13:01:00;11.02;;;4.50;;
77298;SDS011;66361;52.034;20.656;2023-06-10T13:05:04;6.97;;;4.20;;
77298;SDS011;66361;52.034;20.656;2023-06-10T13:09:08;5.53;;;4.63;;
77298;SDS011;66361;52.034;20.656;2023-06-10T13:13:11;12.70;;;4.53;;
77298;SDS011;66361;52.034;20.656;2023-06-10T13:17:15;5.63;;;4.72;;
77298;SDS011;66361;52.034;20.656;2023-06-10T13:21:20;8.40;;;4.63;;
77298;SDS011;66361;52.034;20.656;2023-06-10T13:25:23;6.38;;;4.40;;
77298;SDS011;66361;52.034;20.656;2023-06-10T13:29:26;5.78;;;4.70;;
77298;SDS011;66361;52.034;20.656;2023-06-10T13:33:28;5.68;;;4.05;;
77298;SDS011;66361;52.034;20.656;2023-06-10T13:37:33;13.07;;;4.60;;
77298;SDS011;66361;52.034;20.656;2023-06-10T13:41:36;6.07;;;4.43;;
77298;SDS011;66361;52.034;20.656;2023-06-10T13:45:39;5.90;;;4.35;;
77298;SDS011;66361;52.034;20.656;2023-06-10T13:49:43;18.33;;;5.65;;
77298;SDS011;66361;52.034;20.656;2023-06-10T13:53:47;5.82;;;4.57;;
77298;SDS011;66361;52.034;20.656;2023-06-10T13:57:54;5.95;;;4.97;;
77298;SDS011;66361;52.034;20.656;2023-06-10T14:02:00;7.55;;;5.60;;
77298;SDS011;66361;52.034;20.656;2023-06-10T14:06:03;8.48;;;5.40;;
77298;SDS011;66361;52.034;20.656;2023-06-10T14:10:08;8.93;;;5.60;;
77298;SDS011;66361;52.034;20.656;2023-06-10T14:14:12;6.20;;;5.05;;
77298;SDS011;66361;52.034;20.656;2023-06-10T14:18:15;20.58;;;5.35;;
77298;SDS011;66361;52.034;20.656;2023-06-10T14:22:18;7.97;;;5.80;;
77298;SDS011;66361;52.034;20.656;2023-06-10T14:26:23;7.15;;;6.45;;
77298;SDS011;66361;52.034;20.656;2023-06-10T14:30:27;11.57;;;7.20;;
77298;SDS011;66361;52.034;20.656;2023-06-10T14:34:30;9.15;;;6.57;;
77298;SDS011;66361;52.034;20.656;2023-06-10T14:38:36;6.70;;;6.10;;
77298;SDS011;66361;52.034;20.656;2023-06-10T14:42:41;7.13;;;5.63;;
77298;SDS011;66361;52.034;20.656;2023-06-10T14:46:44;53.38;;;9.23;;
77298;SDS011;66361;52.034;20.656;2023-06-10T14:50:47;8.30;;;6.22;;
77298;SDS011;66361;52.034;20.656;2023-06-10T14:54:53;12.40;;;7.10;;
77298;SDS011;66361;52.034;20.656;2023-06-10T14:58:57;7.57;;;6.88;;
77298;SDS011;66361;52.034;20.656;2023-06-10T15:03:00;9.32;;;6.70;;
77298;SDS011;66361;52.034;20.656;2023-06-10T15:07:04;8.68;;;6.47;;
77298;SDS011;66361;52.034;20.656;2023-06-10T15:11:07;7.22;;;5.80;;
77298;SDS011;66361;52.034;20.656;2023-06-10T15:15:11;9.32;;;7.30;;
77298;SDS011;66361;52.034;20.656;2023-06-10T15:19:15;8.25;;;6.32;;
77298;SDS011;66361;52.034;20.656;2023-06-10T15:23:18;11.07;;;6.47;;
77298;SDS011;66361;52.034;20.656;2023-06-10T15:27:22;6.57;;;5.60;;
77298;SDS011;66361;52.034;20.656;2023-06-10T15:31:29;7.40;;;5.07;;
77298;SDS011;66361;52.034;20.656;2023-06-10T15:35:32;15.68;;;6.78;;
77298;SDS011;66361;52.034;20.656;2023-06-10T15:39:35;8.07;;;5.50;;
77298;SDS011;66361;52.034;20.656;2023-06-10T15:43:38;8.35;;;6.38;;
77298;SDS011;66361;52.034;20.656;2023-06-10T15:47:44;10.68;;;6.57;;
77298;SDS011;66361;52.034;20.656;2023-06-10T15:51:47;8.27;;;6.10;;
77298;SDS011;66361;52.034;20.656;2023-06-10T15:55:51;7.03;;;5.47;;
77298;SDS011;66361;52.034;20.656;2023-06-10T15:59:54;10.57;;;6.18;;
77298;SDS011;66361;52.034;20.656;2023-06-10T16:03:59;8.55;;;6.57;;
77298;SDS011;66361;52.034;20.656;2023-06-10T16:08:02;7.53;;;6.50;;
77298;SDS011;66361;52.034;20.656;2023-06-10T16:12:06;71.70;;;8.88;;
77298;SDS011;66361;52.034;20.656;2023-06-10T16:16:10;7.57;;;6.13;;
77298;SDS011;66361;52.034;20.656;2023-06-10T16:20:14;7.95;;;6.80;;
77298;SDS011;66361;52.034;20.656;2023-06-10T16:24:18;8.43;;;6.75;;
77298;SDS011;66361;52.034;20.656;2023-06-10T16:28:21;6.22;;;5.55;;
77298;SDS011;66361;52.034;20.656;2023-06-10T16:32:25;8.00;;;6.97;;
77298;SDS011;66361;52.034;20.656;2023-06-10T16:36:29;7.72;;;6.60;;
77298;SDS011;66361;52.034;20.656;2023-06-10T16:40:33;8.63;;;6.82;;
77298;SDS011;66361;52.034;20.656;2023-06-10T16:44:35;7.57;;;6.38;;
77298;SDS011;66361;52.034;20.656;2023-06-10T16:48:40;8.85;;;6.80;;
77298;SDS011;66361;52.034;20.656;2023-06-10T16:52:47;10.30;;;6.25;;
77298;SDS011;66361;52.034;20.656;2023-06-10T16:56:49;10.38;;;6.03;;
77298;SDS011;66361;52.034;20.656;2023-06-10T17:00:52;14.95;;;6.63;;
77298;SDS011;66361;52.034;20.656;2023-06-10T17:05:00;9.75;;;6.35;;
77298;SDS011;66361;52.034;20.656;2023-06-10T17:09:04;9.40;;;7.20;;
77298;SDS011;66361;52.034;20.656;2023-06-10T17:13:07;9.52;;;7.03;;
77298;SDS011;66361;52.034;20.656;2023-06-10T17:17:10;12.23;;;6.57;;
77298;SDS011;66361;52.034;20.656;2023-06-10T17:21:16;7.90;;;6.45;;
77298;SDS011;66361;52.034;20.656;2023-06-10T17:25:20;26.77;;;7.13;;
77298;SDS011;66361;52.034;20.656;2023-06-10T17:29:24;8.25;;;6.53;;
77298;SDS011;66361;52.034;20.656;2023-06-10T17:33:28;8.45;;;6.63;;
77298;SDS011;66361;52.034;20.656;2023-06-10T17:37:31;10.43;;;7.47;;
77298;SDS011;66361;52.034;20.656;2023-06-10T17:41:36;13.52;;;6.65;;
77298;SDS011;66361;52.034;20.656;2023-06-10T17:45:44;13.85;;;6.88;;
77298;SDS011;66361;52.034;20.656;2023-06-10T17:49:47;175.20;;;17.92;;
77298;SDS011;66361;52.034;20.656;2023-06-10T17:53:50;6.55;;;5.90;;
77298;SDS011;66361;52.034;20.656;2023-06-10T17:57:55;11.75;;;6.35;;
77298;SDS011;66361;52.034;20.656;2023-06-10T18:01:59;7.43;;;6.53;;
77298;SDS011;66361;52.034;20.656;2023-06-10T18:06:02;8.23;;;6.00;;
77298;SDS011;66361;52.034;20.656;2023-06-10T18:10:05;7.22;;;6.20;;
77298;SDS011;66361;52.034;20.656;2023-06-10T18:14:10;17.45;;;7.05;;
77298;SDS011;66361;52.034;20.656;2023-06-10T18:18:16;18.77;;;7.53;;
77298;SDS011;66361;52.034;20.656;2023-06-10T18:22:19;9.60;;;5.72;;
77298;SDS011;66361;52.034;20.656;2023-06-10T18:26:22;6.88;;;6.13;;
77298;SDS011;66361;52.034;20.656;2023-06-10T18:30:27;8.68;;;6.25;;
77298;SDS011;66361;52.034;20.656;2023-06-10T18:34:31;9.25;;;7.43;;
77298;SDS011;66361;52.034;20.656;2023-06-10T18:38:35;8.43;;;7.43;;
77298;SDS011;66361;52.034;20.656;2023-06-10T18:42:38;7.50;;;6.43;;
77298;SDS011;66361;52.034;20.656;2023-06-10T18:46:43;7.93;;;6.00;;
77298;SDS011;66361;52.034;20.656;2023-06-10T18:50:47;7.47;;;6.47;;
77298;SDS011;66361;52.034;20.656;2023-06-10T18:54:50;42.65;;;9.60;;
77298;SDS011;66361;52.034;20.656;2023-06-10T18:58:53;41.50;;;9.65;;
77298;SDS011;66361;52.034;20.656;2023-06-10T19:02:58;26.55;;;8.68;;
77298;SDS011;66361;52.034;20.656;2023-06-10T19:07:02;26.63;;;6.78;;
77298;SDS011;66361;52.034;20.656;2023-06-10T19:11:06;37.28;;;9.50;;
77298;SDS011;66361;52.034;20.656;2023-06-10T19:15:10;16.67;;;8.45;;
77298;SDS011;66361;52.034;20.656;2023-06-10T19:19:16;78.97;;;15.15;;
77298;SDS011;66361;52.034;20.656;2023-06-10T19:23:21;23.45;;;12.02;;
77298;SDS011;66361;52.034;20.656;2023-06-10T19:27:24;11.00;;;7.55;;
77298;SDS011;66361;52.034;20.656;2023-06-10T19:31:28;7.75;;;6.78;;
77298;SDS011;66361;52.034;20.656;2023-06-10T19:35:36;38.88;;;8.25;;
77298;SDS011;66361;52.034;20.656;2023-06-10T19:39:40;24.77;;;7.22;;
77298;SDS011;66361;52.034;20.656;2023-06-10T19:43:45;41.92;;;9.23;;
77298;SDS011;66361;52.034;20.656;2023-06-10T19:47:48;29.75;;;8.45;;
77298;SDS011;66361;52.034;20.656;2023-06-10T19:51:53;8.82;;;7.20;;
77298;SDS011;66361;52.034;20.656;2023-06-10T19:55:58;33.38;;;9.00;;
77298;SDS011;66361;52.034;20.656;2023-06-10T20:00:03;13.73;;;8.73;;
77298;SDS011;66361;52.034;20.656;2023-06-10T20:04:07;10.13;;;7.53;;
77298;SDS011;66361;52.034;20.656;2023-06-10T20:08:12;18.67;;;7.65;;
77298;SDS011;66361;52.034;20.656;2023-06-10T20:12:15;14.93;;;9.05;;
77298;SDS011;66361;52.034;20.656;2023-06-10T20:16:19;10.35;;;9.27;;
77298;SDS011;66361;52.034;20.656;2023-06-10T20:20:22;12.93;;;8.18;;
77298;SDS011;66361;52.034;20.656;2023-06-10T20:24:27;10.02;;;9.00;;
77298;SDS011;66361;52.034;20.656;2023-06-10T20:28:30;11.40;;;9.65;;
77298;SDS011;66361;52.034;20.656;2023-06-10T20:32:34;11.13;;;8.20;;
77298;SDS011;66361;52.034;20.656;2023-06-10T20:36:39;9.75;;;7.80;;
77298;SDS011;66361;52.034;20.656;2023-06-10T20:40:45;8.82;;;7.30;;
77298;SDS011;66361;52.034;20.656;2023-06-10T20:44:48;10.75;;;7.55;;
77298;SDS011;66361;52.034;20.656;2023-06-10T20:48:54;10.07;;;7.85;;
77298;SDS011;66361;52.034;20.656;2023-06-10T20:52:57;10.75;;;8.35;;
77298;SDS011;66361;52.034;20.656;2023-06-10T20:57:02;9.73;;;8.73;;
77298;SDS011;66361;52.034;20.656;2023-06-10T21:01:07;8.85;;;7.95;;
77298;SDS011;66361;52.034;20.656;2023-06-10T21:05:10;10.35;;;9.30;;
77298;SDS011;66361;52.034;20.656;2023-06-10T21:09:13;15.32;;;8.20;;
77298;SDS011;66361;52.034;20.656;2023-06-10T21:13:18;10.70;;;8.07;;
77298;SDS011;66361;52.034;20.656;2023-06-10T21:17:22;10.35;;;9.35;;
77298;SDS011;66361;52.034;20.656;2023-06-10T21:21:25;10.25;;;8.02;;
77298;SDS011;66361;52.034;20.656;2023-06-10T21:25:28;11.13;;;8.93;;
77298;SDS011;66361;52.034;20.656;2023-06-10T21:29:33;8.80;;;7.80;;
77298;SDS011;66361;52.034;20.656;2023-06-10T21:33:36;10.40;;;9.02;;
77298;SDS011;66361;52.034;20.656;2023-06-10T21:37:39;11.02;;;8.25;;
77298;SDS011;66361;52.034;20.656;2023-06-10T21:41:43;12.82;;;8.98;;
77298;SDS011;66361;52.034;20.656;2023-06-10T21:45:47;11.05;;;9.75;;
77298;SDS011;66361;52.034;20.656;2023-06-10T21:49:51;10.45;;;8.30;;
77298;SDS011;66361;52.034;20.656;2023-06-10T21:53:54;13.55;;;9.65;;
77298;SDS011;66361;52.034;20.656;2023-06-10T21:57:57;10.20;;;8.93;;
77298;SDS011;66361;52.034;20.656;2023-06-10T22:02:02;9.93;;;8.90;;
77298;SDS011;66361;52.034;20.656;2023-06-10T22:06:05;11.77;;;10.43;;
77298;SDS011;66361;52.034;20.656;2023-06-10T22:10:09;12.88;;;8.98;;
77298;SDS011;66361;52.034;20.656;2023-06-10T22:14:12;12.25;;;10.43;;
77298;SDS011;66361;52.034;20.656;2023-06-10T22:18:17;12.18;;;10.05;;
77298;SDS011;66361;52.034;20.656;2023-06-10T22:22:20;10.65;;;9.55;;
77298;SDS011;66361;52.034;20.656;2023-06-10T22:26:23;11.60;;;10.43;;
77298;SDS011;66361;52.034;20.656;2023-06-10T22:30:48;11.13;;;9.93;;
77298;SDS011;66361;52.034;20.656;2023-06-10T22:34:53;11.57;;;10.38;;
77298;SDS011;66361;52.034;20.656;2023-06-10T22:38:56;10.77;;;9.45;;
77298;SDS011;66361;52.034;20.656;2023-06-10T22:43:00;10.68;;;9.57;;
77298;SDS011;66361;52.034;20.656;2023-06-10T22:47:04;11.30;;;9.55;;
77298;SDS011;66361;52.034;20.656;2023-06-10T22:51:09;11.77;;;9.45;;
77298;SDS011;66361;52.034;20.656;2023-06-10T22:55:12;12.02;;;9.88;;
77298;SDS011;66361;52.034;20.656;2023-06-10T22:59:15;11.65;;;9.35;;
77298;SDS011;66361;52.034;20.656;2023-06-10T23:03:18;12.15;;;10.15;;
77298;SDS011;66361;52.034;20.656;2023-06-10T23:07:23;13.32;;;10.98;;
77298;SDS011;66361;52.034;20.656;2023-06-10T23:11:29;11.98;;;10.75;;
77298;SDS011;66361;52.034;20.656;2023-06-10T23:15:32;16.02;;;11.23;;
77298;SDS011;66361;52.034;20.656;2023-06-10T23:19:35;12.32;;;10.57;;
77298;SDS011;66361;52.034;20.656;2023-06-10T23:23:43;11.35;;;10.18;;
77298;SDS011;66361;52.034;20.656;2023-06-10T23:27:47;12.77;;;11.20;;
77298;SDS011;66361;52.034;20.656;2023-06-10T23:31:50;12.52;;;10.38;;
77298;SDS011;66361;52.034;20.656;2023-06-10T23:35:53;13.88;;;12.27;;
77298;SDS011;66361;52.034;20.656;2023-06-10T23:39:58;14.43;;;11.68;;
77298;SDS011;66361;52.034;20.656;2023-06-10T23:44:01;13.98;;;12.32;;
77298;SDS011;66361;52.034;20.656;2023-06-10T23:48:05;21.30;;;12.93;;
77298;SDS011;66361;52.034;20.656;2023-06-10T23:52:08;13.57;;;10.85;;
77298;SDS011;66361;52.034;20.656;2023-06-10T23:56:14;17.60;;;13.18;;
